Time;durP1;ratioP1;P1;durP2;ratioP2;P2;SDS_P1;SDS_P2;PMS_P1;PMS_P2;Temp;Humidity;BMP_temperature;BMP_pressure;BME280_temperature;BME280_humidity;BME280_pressure;Samples;Min_cycle;Max_cycle;Signal;HPM_P1;HPM_P2
2021/05/17 00:01:43;;;;;;;3.13;1.47;;;;;;;;;;4990213;28;20672;-69
2021/05/17 00:04:11;;;;;;;1.57;1.10;;;;;;;;;;4987423;28;20196;-69
2021/05/17 00:06:37;;;;;;;2.20;1.03;;;;;;;;;;4987956;28;20240;-69
2021/05/17 00:09:04;;;;;;;2.23;1.23;;;;;;;;;;4985478;28;20696;-69
2021/05/17 00:11:30;;;;;;;2.13;1.37;;;;;;;;;;4987178;28;20190;-69
2021/05/17 00:13:56;;;;;;;1.93;1.20;;;;;;;;;;4988012;28;20217;-69
2021/05/17 00:16:22;;;;;;;1.30;1.20;;;;;;;;;;4988624;28;20194;-69
2021/05/17 00:18:48;;;;;;;2.50;1.37;;;;;;;;;;4991336;28;20189;-69
2021/05/17 00:21:14;;;;;;;1.23;1.17;;;;;;;;;;4983067;28;20205;-69
2021/05/17 00:23:40;;;;;;;1.87;1.30;;;;;;;;;;4987133;28;21033;-69
2021/05/17 00:26:06;;;;;;;1.20;1.10;;;;;;;;;;4990304;28;20193;-69
2021/05/17 00:28:32;;;;;;;1.80;1.13;;;;;;;;;;4987126;28;20208;-69
2021/05/17 00:30:59;;;;;;;4.43;1.20;;;;;;;;;;4987823;28;20233;-69
2021/05/17 00:33:25;;;;;;;2.43;1.33;;;;;;;;;;4991441;28;20272;-69
2021/05/17 00:35:52;;;;;;;1.30;1.20;;;;;;;;;;4986306;28;20193;-70
2021/05/17 00:38:18;;;;;;;1.20;1.10;;;;;;;;;;4987571;28;20664;-70
2021/05/17 00:40:45;;;;;;;2.50;1.20;;;;;;;;;;4986808;28;20213;-70
2021/05/17 00:43:11;;;;;;;3.33;1.20;;;;;;;;;;4986033;28;20197;-69
2021/05/17 00:45:37;;;;;;;1.37;1.27;;;;;;;;;;4988995;28;20272;-70
2021/05/17 00:48:03;;;;;;;1.33;1.07;;;;;;;;;;4989359;28;20213;-69
2021/05/17 00:50:29;;;;;;;1.43;1.33;;;;;;;;;;4996552;28;20225;-70
2021/05/17 00:52:56;;;;;;;2.30;1.17;;;;;;;;;;4997146;28;20265;-70
2021/05/17 00:55:23;;;;;;;1.50;1.40;;;;;;;;;;5002641;28;20197;-69
2021/05/17 00:57:49;;;;;;;4.27;1.47;;;;;;;;;;4996782;28;20503;-70
2021/05/17 01:00:16;;;;;;;1.40;1.30;;;;;;;;;;4984495;28;20221;-70
2021/05/17 01:02:43;;;;;;;3.50;1.37;;;;;;;;;;4981394;28;20245;-69
2021/05/17 01:05:09;;;;;;;1.80;1.40;;;;;;;;;;4982092;28;20308;-70
2021/05/17 01:07:36;;;;;;;1.47;1.37;;;;;;;;;;4988992;28;20197;-70
2021/05/17 01:10:03;;;;;;;1.20;1.10;;;;;;;;;;4979907;28;20218;-70
2021/05/17 01:12:32;;;;;;;2.23;1.10;;;;;;;;;;4987880;28;20299;-70
2021/05/17 01:14:58;;;;;;;1.43;1.33;;;;;;;;;;4985806;28;20229;-70
2021/05/17 01:17:28;;;;;;;1.40;1.20;;;;;;;;;;4986171;28;20192;-70
2021/05/17 01:20:04;;;;;;;4.93;1.60;;;;;;;;;;4982586;28;20202;-69
2021/05/17 01:22:39;;;;;;;2.03;1.40;;;;;;;;;;4989836;28;20555;-70
2021/05/17 01:25:05;;;;;;;5.37;1.40;;;;;;;;;;4989189;28;20680;-70
2021/05/17 01:27:32;;;;;;;1.83;1.20;;;;;;;;;;4989987;28;20193;-69
2021/05/17 01:29:59;;;;;;;2.90;1.40;;;;;;;;;;4990327;28;20264;-70
2021/05/17 01:32:25;;;;;;;1.60;1.43;;;;;;;;;;4987651;28;20217;-71
2021/05/17 01:34:51;;;;;;;2.07;1.30;;;;;;;;;;4988299;28;20672;-71
2021/05/17 01:37:21;;;;;;;2.43;1.73;;;;;;;;;;4988268;28;20194;-71
2021/05/17 01:39:49;;;;;;;1.90;1.30;;;;;;;;;;4988971;28;20202;-71
2021/05/17 01:42:16;;;;;;;1.93;1.10;;;;;;;;;;4991427;28;20276;-68
2021/05/17 01:44:42;;;;;;;2.20;1.40;;;;;;;;;;4991959;28;20188;-71
2021/05/17 01:47:09;;;;;;;2.10;1.23;;;;;;;;;;5001373;28;20473;-69
2021/05/17 01:49:38;;;;;;;1.10;1.10;;;;;;;;;;4993173;28;21025;-69
2021/05/17 01:52:04;;;;;;;1.93;1.30;;;;;;;;;;4987720;28;20240;-68
2021/05/17 01:54:32;;;;;;;1.53;1.13;;;;;;;;;;4995658;28;20510;-71
2021/05/17 01:56:58;;;;;;;1.27;1.17;;;;;;;;;;4989995;28;20217;-69
2021/05/17 01:59:27;;;;;;;3.03;1.37;;;;;;;;;;4990632;28;20206;-68
2021/05/17 02:01:53;;;;;;;2.73;1.10;;;;;;;;;;4987723;28;20201;-71
2021/05/17 02:04:20;;;;;;;2.30;1.40;;;;;;;;;;4990118;28;20264;-69
2021/05/17 02:06:47;;;;;;;1.33;1.23;;;;;;;;;;4986889;28;20194;-69
2021/05/17 02:09:14;;;;;;;1.50;1.37;;;;;;;;;;4992826;28;20716;-71
2021/05/17 02:11:40;;;;;;;2.50;1.47;;;;;;;;;;4990669;28;20189;-69
2021/05/17 02:14:06;;;;;;;2.40;1.40;;;;;;;;;;4989811;28;20256;-69
2021/05/17 02:16:33;;;;;;;1.87;1.30;;;;;;;;;;4991226;28;20189;-69
2021/05/17 02:18:59;;;;;;;1.20;1.10;;;;;;;;;;4986696;28;20267;-68
2021/05/17 02:21:25;;;;;;;1.63;1.43;;;;;;;;;;4982583;28;20183;-69
2021/05/17 02:23:51;;;;;;;1.00;1.00;;;;;;;;;;4987134;28;20208;-69
2021/05/17 02:26:17;;;;;;;2.10;1.20;;;;;;;;;;4988254;28;20209;-69
2021/05/17 02:28:43;;;;;;;2.00;1.30;;;;;;;;;;4988042;28;20185;-72
2021/05/17 02:31:10;;;;;;;3.33;1.30;;;;;;;;;;4988256;28;20209;-71
2021/05/17 02:33:36;;;;;;;1.67;1.20;;;;;;;;;;4989497;28;20851;-69
2021/05/17 02:36:04;;;;;;;2.20;1.20;;;;;;;;;;4994535;28;20224;-72
2021/05/17 02:38:30;;;;;;;1.10;1.00;;;;;;;;;;4992357;28;20217;-69
2021/05/17 02:40:57;;;;;;;1.33;1.23;;;;;;;;;;4991717;28;20209;-69
2021/05/17 02:43:23;;;;;;;1.27;1.10;;;;;;;;;;4991285;28;20198;-69
2021/05/17 02:45:50;;;;;;;1.10;1.10;;;;;;;;;;4987754;28;20190;-69
2021/05/17 02:48:17;;;;;;;2.03;1.30;;;;;;;;;;4986651;28;20202;-69
2021/05/17 02:50:45;;;;;;;1.37;1.27;;;;;;;;;;4988478;28;20217;-72
2021/05/17 02:53:30;;;;;;;1.30;1.20;;;;;;;;;;4988743;28;20214;-71
2021/05/17 02:55:57;;;;;;;2.03;1.30;;;;;;;;;;4987252;28;20185;-69
2021/05/17 02:58:24;;;;;;;1.37;1.10;;;;;;;;;;4989014;28;20649;-69
2021/05/17 03:00:51;;;;;;;1.13;1.13;;;;;;;;;;4985184;28;20276;-70
2021/05/17 03:03:17;;;;;;;1.20;1.10;;;;;;;;;;4984168;28;20194;-69
2021/05/17 03:05:44;;;;;;;1.60;1.30;;;;;;;;;;4986222;28;20197;-69
2021/05/17 03:08:12;;;;;;;1.57;1.47;;;;;;;;;;4986535;28;20541;-69
2021/05/17 03:10:39;;;;;;;1.23;1.10;;;;;;;;;;4989366;28;20205;-69
2021/05/17 03:13:13;;;;;;;1.20;1.10;;;;;;;;;;4985891;28;20756;-69
2021/05/17 03:15:40;;;;;;;1.20;1.20;;;;;;;;;;4988514;28;20193;-70
2021/05/17 03:18:06;;;;;;;1.87;1.30;;;;;;;;;;4989657;28;20228;-70
2021/05/17 03:20:32;;;;;;;1.33;1.17;;;;;;;;;;4988209;28;20619;-69
2021/05/17 03:22:59;;;;;;;2.10;1.40;;;;;;;;;;4987069;28;20193;-70
2021/05/17 03:25:30;;;;;;;1.40;1.30;;;;;;;;;;4986206;28;20221;-70
2021/05/17 03:27:57;;;;;;;1.50;1.40;;;;;;;;;;4985038;28;20625;-69
2021/05/17 03:30:23;;;;;;;1.30;1.20;;;;;;;;;;4985074;28;20209;-69
2021/05/17 03:32:49;;;;;;;1.43;1.20;;;;;;;;;;4977445;28;20558;-70
2021/05/17 03:35:15;;;;;;;2.03;1.20;;;;;;;;;;4986176;28;20188;-69
2021/05/17 03:37:41;;;;;;;1.30;1.20;;;;;;;;;;4989947;28;20238;-71
2021/05/17 03:40:08;;;;;;;2.47;1.17;;;;;;;;;;4992173;28;20222;-71
2021/05/17 03:42:35;;;;;;;1.60;1.30;;;;;;;;;;4991118;28;20194;-71
2021/05/17 03:45:01;;;;;;;3.23;1.50;;;;;;;;;;4990894;28;20192;-71
2021/05/17 03:47:27;;;;;;;1.70;1.47;;;;;;;;;;4992082;28;20190;-71
2021/05/17 03:49:53;;;;;;;2.53;1.30;;;;;;;;;;4994928;28;20722;-71
2021/05/17 03:52:19;;;;;;;1.43;1.20;;;;;;;;;;4987913;28;20185;-71
2021/05/17 03:54:45;;;;;;;2.27;1.37;;;;;;;;;;5000062;28;20573;-71
2021/05/17 03:57:11;;;;;;;2.77;1.30;;;;;;;;;;4986794;28;20221;-71
2021/05/17 03:59:39;;;;;;;1.37;1.30;;;;;;;;;;4992243;28;20439;-71
2021/05/17 04:02:07;;;;;;;1.83;1.30;;;;;;;;;;4988075;28;20181;-71
2021/05/17 04:04:43;;;;;;;2.57;1.30;;;;;;;;;;4989420;28;20216;-71
2021/05/17 04:13:18;;;;;;;1.87;1.77;;;;;;;;;;4983708;28;20225;-70
2021/05/17 04:15:18;;;;;;;1.50;1.40;;;;;;;;;;4984712;28;20239;-70
2021/05/17 04:17:44;;;;;;;1.30;1.20;;;;;;;;;;4984473;28;20196;-70
2021/05/17 04:20:10;;;;;;;1.90;1.33;;;;;;;;;;4982997;28;20205;-70
2021/05/17 04:22:36;;;;;;;3.40;1.20;;;;;;;;;;4986358;28;20193;-70
2021/05/17 04:25:03;;;;;;;3.63;1.20;;;;;;;;;;4987387;28;20593;-70
2021/05/17 04:27:29;;;;;;;1.47;1.37;;;;;;;;;;4989960;28;20188;-71
2021/05/17 04:29:55;;;;;;;2.00;1.50;;;;;;;;;;4990661;28;20221;-71
2021/05/17 04:32:21;;;;;;;2.30;1.30;;;;;;;;;;4991065;28;20189;-71
2021/05/17 04:34:47;;;;;;;2.07;1.30;;;;;;;;;;4985065;28;20642;-71
2021/05/17 04:37:13;;;;;;;1.90;1.40;;;;;;;;;;4989313;28;20197;-70
2021/05/17 04:39:39;;;;;;;2.77;1.63;;;;;;;;;;4990746;28;20200;-71
2021/05/17 04:42:05;;;;;;;2.80;1.30;;;;;;;;;;4991041;28;20182;-70
2021/05/17 04:44:32;;;;;;;1.73;1.20;;;;;;;;;;5006390;28;20661;-71
2021/05/17 04:46:57;;;;;;;1.33;1.23;;;;;;;;;;4993840;28;20209;-72
2021/05/17 04:49:23;;;;;;;1.20;1.10;;;;;;;;;;4994067;28;20221;-71
2021/05/17 04:51:50;;;;;;;1.33;1.20;;;;;;;;;;4989193;28;20209;-70
2021/05/17 04:54:16;;;;;;;2.20;1.30;;;;;;;;;;4986645;28;20216;-70
2021/05/17 04:56:42;;;;;;;2.57;1.27;;;;;;;;;;4992191;28;20190;-71
2021/05/17 04:59:08;;;;;;;2.40;1.20;;;;;;;;;;4991246;28;20259;-71
2021/05/17 05:01:34;;;;;;;2.10;1.50;;;;;;;;;;4985101;28;20187;-71
2021/05/17 05:04:00;;;;;;;1.37;1.27;;;;;;;;;;4987633;28;20197;-72
2021/05/17 05:06:26;;;;;;;1.87;1.43;;;;;;;;;;4986560;28;20200;-71
2021/05/17 05:08:52;;;;;;;2.87;1.90;;;;;;;;;;4980053;28;20194;-73
2021/05/17 05:11:18;;;;;;;1.47;1.20;;;;;;;;;;4988631;28;20197;-73
2021/05/17 05:13:44;;;;;;;4.20;1.80;;;;;;;;;;5002186;28;20230;-72
2021/05/17 05:16:10;;;;;;;3.30;2.37;;;;;;;;;;4988705;28;20194;-73
2021/05/17 05:18:36;;;;;;;2.50;1.40;;;;;;;;;;4985413;28;20185;-73
2021/05/17 05:21:02;;;;;;;1.27;1.17;;;;;;;;;;4989288;28;20731;-73
2021/05/17 05:23:28;;;;;;;1.53;1.17;;;;;;;;;;4989170;28;20649;-72
2021/05/17 05:31:19;;;;;;;1.63;1.50;;;;;;;;;;4977075;28;20312;-72
2021/05/17 05:33:44;;;;;;;1.10;1.07;;;;;;;;;;4988399;28;20292;-72
2021/05/17 05:36:11;;;;;;;2.03;1.50;;;;;;;;;;4988369;28;20288;-72
2021/05/17 05:38:37;;;;;;;1.70;1.20;;;;;;;;;;4991282;28;20712;-72
2021/05/17 05:41:03;;;;;;;1.30;1.20;;;;;;;;;;4992612;28;20185;-72
2021/05/17 05:43:29;;;;;;;1.30;1.10;;;;;;;;;;4980590;28;20277;-71
2021/05/17 05:45:55;;;;;;;1.37;1.20;;;;;;;;;;4983332;28;20202;-72
2021/05/17 05:48:21;;;;;;;1.10;1.00;;;;;;;;;;4991351;28;20252;-72
2021/05/17 05:50:47;;;;;;;1.30;1.20;;;;;;;;;;4986651;28;20224;-73
2021/05/17 05:53:16;;;;;;;1.27;0.90;;;;;;;;;;4987841;28;20349;-72
2021/05/17 05:55:46;;;;;;;2.83;1.23;;;;;;;;;;4990508;28;20644;-72
2021/05/17 05:58:13;;;;;;;1.00;1.00;;;;;;;;;;4987894;28;22443;-73
2021/05/17 06:00:39;;;;;;;0.90;0.90;;;;;;;;;;4985177;28;20229;-74
2021/05/17 06:03:05;;;;;;;1.50;1.03;;;;;;;;;;4979501;28;20313;-71
2021/05/17 06:05:32;;;;;;;2.63;1.57;;;;;;;;;;4982038;28;20536;-74
2021/05/17 06:07:59;;;;;;;1.07;0.77;;;;;;;;;;4990095;28;20699;-73
2021/05/17 06:10:25;;;;;;;0.90;0.90;;;;;;;;;;4987929;28;20205;-71
2021/05/17 06:12:51;;;;;;;2.03;0.97;;;;;;;;;;4986860;28;20275;-71
2021/05/17 06:15:18;;;;;;;1.20;1.10;;;;;;;;;;4989100;28;20252;-72
2021/05/17 06:17:46;;;;;;;1.23;1.10;;;;;;;;;;4991287;28;20198;-73
2021/05/17 06:20:12;;;;;;;1.43;1.17;;;;;;;;;;4990027;28;20233;-72
2021/05/17 06:22:38;;;;;;;1.10;1.00;;;;;;;;;;4992939;28;20197;-71
2021/05/17 06:25:16;;;;;;;2.47;1.10;;;;;;;;;;4985420;28;20190;-71
2021/05/17 06:27:43;;;;;;;1.13;1.03;;;;;;;;;;4985124;28;20647;-72
2021/05/17 06:30:10;;;;;;;1.00;0.80;;;;;;;;;;4987834;28;20224;-74
2021/05/17 06:32:37;;;;;;;1.83;1.10;;;;;;;;;;4986149;28;20210;-70
2021/05/17 06:35:07;;;;;;;1.35;0.82;;;;;;;;;;4988751;28;20185;-71
2021/05/17 06:37:33;;;;;;;1.27;0.88;;;;;;;;;;4991364;28;20196;-70
2021/05/17 06:40:00;;;;;;;1.20;1.00;;;;;;;;;;4989807;28;20279;-70
2021/05/17 06:42:26;;;;;;;3.05;1.17;;;;;;;;;;4989080;28;20185;-70
2021/05/17 06:44:52;;;;;;;1.55;0.98;;;;;;;;;;4987533;28;20182;-70
2021/05/17 06:47:18;;;;;;;1.20;1.00;;;;;;;;;;4988893;28;20217;-70
2021/05/17 06:49:46;;;;;;;1.48;1.10;;;;;;;;;;4987284;28;20216;-70
2021/05/17 06:52:13;;;;;;;5.27;1.10;;;;;;;;;;5004744;28;20272;-71
2021/05/17 06:54:41;;;;;;;2.77;1.23;;;;;;;;;;4989296;28;20220;-70
2021/05/17 06:59:43;;;;;;;1.30;1.10;;;;;;;;;;4988862;28;20237;-71
2021/05/17 07:02:11;;;;;;;1.20;0.93;;;;;;;;;;4984964;28;20181;-70
2021/05/17 07:04:38;;;;;;;1.40;1.03;;;;;;;;;;4985893;28;20187;-70
2021/05/17 07:07:05;;;;;;;1.43;1.00;;;;;;;;;;4997759;28;20208;-70
2021/05/17 07:12:17;;;;;;;3.13;1.23;;;;;;;;;;4981133;28;20224;-70
2021/05/17 07:14:43;;;;;;;2.33;1.30;;;;;;;;;;5002399;28;20193;-70
2021/05/17 07:17:09;;;;;;;2.97;1.40;;;;;;;;;;4985889;28;20193;-70
2021/05/17 07:19:36;;;;;;;4.13;1.50;;;;;;;;;;4989378;28;20292;-70
2021/05/17 07:24:47;;;;;;;1.33;1.23;;;;;;;;;;4987498;28;20298;-70
2021/05/17 07:27:13;;;;;;;3.47;1.60;;;;;;;;;;4983228;28;20205;-70
2021/05/17 07:29:39;;;;;;;2.73;1.50;;;;;;;;;;4987842;28;20225;-70
2021/05/17 07:32:09;;;;;;;2.53;1.40;;;;;;;;;;4984032;28;20190;-70
2021/05/17 07:34:36;;;;;;;1.40;1.03;;;;;;;;;;5000662;28;20226;-69
2021/05/17 07:37:03;;;;;;;2.50;1.47;;;;;;;;;;4991069;28;20256;-69
2021/05/17 07:39:29;;;;;;;1.67;1.00;;;;;;;;;;4986842;28;20209;-69
2021/05/17 07:41:55;;;;;;;5.30;1.30;;;;;;;;;;4986092;28;20213;-69
2021/05/17 07:44:21;;;;;;;1.43;1.33;;;;;;;;;;4986485;28;20213;-69
2021/05/17 07:46:47;;;;;;;1.93;1.60;;;;;;;;;;4986911;28;20205;-69
2021/05/17 07:51:42;;;;;;;1.60;1.20;;;;;;;;;;4983804;28;20197;-69
2021/05/17 07:54:08;;;;;;;2.08;1.38;;;;;;;;;;4986781;28;20669;-69
2021/05/17 07:56:34;;;;;;;1.65;1.50;;;;;;;;;;4985684;28;20191;-69
2021/05/17 07:59:00;;;;;;;2.40;1.20;;;;;;;;;;4984154;28;20213;-69
2021/05/17 08:01:27;;;;;;;1.47;1.27;;;;;;;;;;4984465;28;20269;-68
2021/05/17 08:03:53;;;;;;;1.57;1.17;;;;;;;;;;4987311;28;20272;-70
2021/05/17 08:06:19;;;;;;;2.00;1.50;;;;;;;;;;4990673;28;20656;-69
2021/05/17 08:08:45;;;;;;;2.03;1.30;;;;;;;;;;4988629;28;20189;-69
2021/05/17 08:11:11;;;;;;;1.70;1.10;;;;;;;;;;4991860;28;20194;-70
2021/05/17 08:13:41;;;;;;;2.85;1.20;;;;;;;;;;4987756;28;20201;-69
2021/05/17 08:16:09;;;;;;;2.13;1.50;;;;;;;;;;4982853;28;20185;-66
2021/05/17 08:18:35;;;;;;;1.73;1.27;;;;;;;;;;5004395;28;20345;-67
2021/05/17 08:21:01;;;;;;;2.25;1.27;;;;;;;;;;4984467;28;20553;-68
2021/05/17 08:23:27;;;;;;;2.05;1.50;;;;;;;;;;4987804;28;20631;-68
2021/05/17 08:25:53;;;;;;;2.20;1.73;;;;;;;;;;4990047;28;20319;-69
2021/05/17 08:28:20;;;;;;;0.85;0.85;;;;;;;;;;4986853;28;20186;-69
2021/05/17 08:30:53;;;;;;;1.05;0.90;;;;;;;;;;4990112;28;20316;-69
2021/05/17 08:33:19;;;;;;;1.20;1.10;;;;;;;;;;4986913;28;20240;-69
2021/05/17 08:35:46;;;;;;;2.05;1.23;;;;;;;;;;4987798;28;20631;-69
2021/05/17 08:38:12;;;;;;;1.45;1.00;;;;;;;;;;4995757;28;20254;-69
2021/05/17 08:40:39;;;;;;;7.53;1.95;;;;;;;;;;4994422;28;20213;-68
2021/05/17 08:43:06;;;;;;;4.13;1.67;;;;;;;;;;4990962;28;20239;-69
2021/05/17 08:45:32;;;;;;;2.85;0.90;;;;;;;;;;4988564;28;20201;-69
2021/05/17 08:47:58;;;;;;;1.67;1.20;;;;;;;;;;4993065;28;20197;-69
2021/05/17 08:50:25;;;;;;;3.28;0.90;;;;;;;;;;4993302;28;20292;-69
2021/05/17 08:52:51;;;;;;;2.83;1.42;;;;;;;;;;4988392;28;20252;-69
2021/05/17 08:55:18;;;;;;;3.92;1.08;;;;;;;;;;4986890;28;20207;-69
2021/05/17 08:57:45;;;;;;;0.98;0.80;;;;;;;;;;4992501;28;20257;-69
2021/05/17 09:00:11;;;;;;;1.83;1.13;;;;;;;;;;4989793;28;20684;-69
2021/05/17 09:02:37;;;;;;;2.85;1.00;;;;;;;;;;4991420;28;20256;-69
2021/05/17 09:05:09;;;;;;;4.95;1.20;;;;;;;;;;4991451;28;20192;-69
2021/05/17 09:07:42;;;;;;;1.80;0.93;;;;;;;;;;4991773;28;20196;-68
2021/05/17 09:10:31;;;;;;;1.38;0.90;;;;;;;;;;4989809;28;21065;-68
2021/05/17 09:13:02;;;;;;;1.13;1.00;;;;;;;;;;4990951;28;20206;-69
2021/05/17 09:15:33;;;;;;;4.13;1.17;;;;;;;;;;4992843;28;20189;-69
2021/05/17 09:18:01;;;;;;;1.60;1.00;;;;;;;;;;4995453;28;20672;-69
2021/05/17 09:20:35;;;;;;;0.90;0.90;;;;;;;;;;4989947;28;21559;-68
2021/05/17 09:23:05;;;;;;;2.63;0.98;;;;;;;;;;4991191;28;20188;-70
2021/05/17 09:25:31;;;;;;;2.88;1.40;;;;;;;;;;4994746;28;20189;-67
2021/05/17 09:28:01;;;;;;;1.48;1.25;;;;;;;;;;4992288;28;20193;-68
2021/05/17 09:30:44;;;;;;;1.10;1.00;;;;;;;;;;4993735;28;20581;-68
2021/05/17 09:33:13;;;;;;;0.98;0.90;;;;;;;;;;4988738;28;20209;-68
2021/05/17 09:35:39;;;;;;;1.42;0.88;;;;;;;;;;4985274;28;20201;-67
2021/05/17 09:38:07;;;;;;;1.95;1.10;;;;;;;;;;4983940;28;20185;-67
2021/05/17 09:40:34;;;;;;;1.63;1.20;;;;;;;;;;4992896;28;20212;-66
2021/05/17 09:43:00;;;;;;;0.88;0.82;;;;;;;;;;4980736;28;20234;-66
2021/05/17 09:45:30;;;;;;;2.13;1.65;;;;;;;;;;4988623;28;20652;-66
2021/05/17 09:47:56;;;;;;;2.35;1.08;;;;;;;;;;4984110;28;20559;-67
2021/05/17 09:50:22;;;;;;;2.88;1.40;;;;;;;;;;4990942;28;20241;-66
2021/05/17 09:52:48;;;;;;;1.05;1.00;;;;;;;;;;4987973;28;20209;-67
2021/05/17 09:55:14;;;;;;;3.15;0.95;;;;;;;;;;4988989;28;20256;-67
2021/05/17 09:57:49;;;;;;;1.52;1.10;;;;;;;;;;4988580;28;20182;-67
2021/05/17 10:00:18;;;;;;;1.67;0.98;;;;;;;;;;4990674;28;20216;-68
2021/05/17 10:02:44;;;;;;;3.63;1.20;;;;;;;;;;4985685;28;20188;-67
2021/05/17 10:05:11;;;;;;;2.65;1.10;;;;;;;;;;4988025;28;20201;-67
2021/05/17 10:07:37;;;;;;;3.05;1.08;;;;;;;;;;4988165;28;20532;-67
2021/05/17 10:10:04;;;;;;;1.17;0.90;;;;;;;;;;5002960;28;20222;-68
2021/05/17 10:12:30;;;;;;;1.35;0.90;;;;;;;;;;4986964;28;20269;-66
2021/05/17 10:14:56;;;;;;;1.40;1.30;;;;;;;;;;4989745;28;20918;-67
2021/05/17 10:17:22;;;;;;;1.67;1.27;;;;;;;;;;4986541;28;20174;-68
2021/05/17 10:19:48;;;;;;;7.30;4.95;;;;;;;;;;4990488;28;20274;-68
2021/05/17 10:22:14;;;;;;;3.90;2.03;;;;;;;;;;4988496;28;20661;-68
2021/05/17 10:24:40;;;;;;;2.58;1.30;;;;;;;;;;4991705;28;20186;-68
2021/05/17 10:27:10;;;;;;;1.83;1.10;;;;;;;;;;4989908;28;20718;-68
2021/05/17 10:29:37;;;;;;;2.97;1.40;;;;;;;;;;4990307;28;20217;-67
2021/05/17 10:32:05;;;;;;;2.38;1.35;;;;;;;;;;4989527;28;20247;-67
2021/05/17 10:34:31;;;;;;;2.75;1.52;;;;;;;;;;4990015;28;20212;-67
2021/05/17 10:37:00;;;;;;;2.42;1.38;;;;;;;;;;4986562;28;20193;-66
2021/05/17 10:39:35;;;;;;;3.67;1.95;;;;;;;;;;4984072;28;20232;-67
2021/05/17 10:42:14;;;;;;;2.40;1.10;;;;;;;;;;4989320;28;20193;-68
2021/05/17 10:47:44;;;;;;;1.48;0.93;;;;;;;;;;4990072;28;20617;-67
2021/05/17 10:50:15;;;;;;;2.85;1.30;;;;;;;;;;4990565;28;20220;-67
2021/05/17 10:52:41;;;;;;;1.75;1.30;;;;;;;;;;4983807;28;20205;-67
2021/05/17 10:55:09;;;;;;;2.67;1.30;;;;;;;;;;4989021;28;20236;-67
2021/05/17 10:57:46;;;;;;;1.65;1.35;;;;;;;;;;4989274;28;20224;-67
2021/05/17 11:00:23;;;;;;;2.33;1.30;;;;;;;;;;4989758;28;20228;-68
2021/05/17 11:03:06;;;;;;;1.98;1.10;;;;;;;;;;4985026;28;20202;-68
2021/05/17 11:05:32;;;;;;;2.00;1.00;;;;;;;;;;4991092;28;20664;-67
2021/05/17 11:08:01;;;;;;;2.15;1.08;;;;;;;;;;4986933;28;20212;-69
2021/05/17 11:10:46;;;;;;;1.15;1.05;;;;;;;;;;4991784;28;20205;-68
2021/05/17 11:13:19;;;;;;;2.45;1.05;;;;;;;;;;5002206;28;20198;-68
2021/05/17 11:15:48;;;;;;;1.00;0.90;;;;;;;;;;4989617;28;20189;-69
2021/05/17 11:18:14;;;;;;;1.60;0.90;;;;;;;;;;4988161;28;20197;-69
2021/05/17 11:20:44;;;;;;;2.03;1.40;;;;;;;;;;5007973;28;20197;-70
2021/05/17 11:23:12;;;;;;;1.20;1.10;;;;;;;;;;4987820;28;20268;-69
2021/05/17 11:26:14;;;;;;;1.02;0.93;;;;;;;;;;4988812;28;20296;-70
2021/05/17 11:28:41;;;;;;;1.90;1.10;;;;;;;;;;4987989;28;20188;-68
2021/05/17 11:31:25;;;;;;;1.30;0.90;;;;;;;;;;5043122;28;20531;-69
2021/05/17 11:33:55;;;;;;;1.60;0.82;;;;;;;;;;5040370;28;20190;-70
2021/05/17 11:36:22;;;;;;;1.60;1.20;;;;;;;;;;5040695;28;20687;-69
2021/05/17 11:39:06;;;;;;;1.20;1.05;;;;;;;;;;5045476;28;20195;-69
2021/05/17 11:41:33;;;;;;;1.02;0.88;;;;;;;;;;5046800;28;20647;-69
2021/05/17 11:44:03;;;;;;;3.65;0.70;;;;;;;;;;5041728;28;20180;-69
2021/05/17 11:46:35;;;;;;;1.95;0.82;;;;;;;;;;5041869;28;20180;-70
2021/05/17 11:49:02;;;;;;;1.20;0.90;;;;;;;;;;5031269;28;20200;-69
2021/05/17 11:51:29;;;;;;;1.00;0.80;;;;;;;;;;5038635;28;20238;-69
2021/05/17 11:53:56;;;;;;;0.80;0.80;;;;;;;;;;5046637;28;20566;-67
2021/05/17 11:56:33;;;;;;;0.90;0.70;;;;;;;;;;5051385;28;20238;-68
2021/05/17 11:59:06;;;;;;;0.70;0.70;;;;;;;;;;5038124;28;20265;-67
2021/05/17 12:01:32;;;;;;;1.25;0.90;;;;;;;;;;5033874;28;20184;-67
2021/05/17 12:04:14;;;;;;;0.60;0.60;;;;;;;;;;5037815;28;20683;-67
2021/05/17 12:06:41;;;;;;;0.85;0.77;;;;;;;;;;5039828;28;20574;-68
2021/05/17 12:09:07;;;;;;;1.85;0.90;;;;;;;;;;5042373;28;20300;-68
2021/05/17 12:11:34;;;;;;;2.08;0.85;;;;;;;;;;5039664;28;20238;-68
2021/05/17 12:14:09;;;;;;;0.85;0.63;;;;;;;;;;5037803;28;20652;-68
2021/05/17 12:16:35;;;;;;;0.60;0.60;;;;;;;;;;5038666;28;20172;-68
2021/05/17 12:19:03;;;;;;;0.60;0.60;;;;;;;;;;5038858;28;20239;-68
2021/05/17 12:21:32;;;;;;;0.82;0.82;;;;;;;;;;5043856;28;20590;-68
2021/05/17 12:23:58;;;;;;;1.23;0.65;;;;;;;;;;5042346;28;20276;-67
2021/05/17 12:26:25;;;;;;;0.80;0.77;;;;;;;;;;5035562;28;20223;-68
2021/05/17 12:29:02;;;;;;;0.98;0.82;;;;;;;;;;5032612;28;20179;-68
2021/05/17 12:31:28;;;;;;;0.80;0.70;;;;;;;;;;5040784;28;20180;-70
2021/05/17 12:33:54;;;;;;;1.45;0.75;;;;;;;;;;5039748;28;20674;-68
2021/05/17 12:36:20;;;;;;;1.55;0.70;;;;;;;;;;5042206;28;20187;-68
2021/05/17 12:38:46;;;;;;;0.60;0.60;;;;;;;;;;5042200;28;20207;-70
2021/05/17 12:41:32;;;;;;;0.60;0.60;;;;;;;;;;5034928;28;20267;-68
2021/05/17 12:43:58;;;;;;;1.13;0.90;;;;;;;;;;5023855;28;20220;-68
2021/05/17 12:46:28;;;;;;;2.50;0.70;;;;;;;;;;5026698;28;20227;-68
2021/05/17 12:48:54;;;;;;;1.45;0.85;;;;;;;;;;5033488;28;20800;-70
2021/05/17 12:51:20;;;;;;;1.73;0.70;;;;;;;;;;5024424;28;20187;-69
2021/05/17 12:53:48;;;;;;;0.73;0.70;;;;;;;;;;5024252;28;20539;-72
2021/05/17 12:56:26;;;;;;;1.52;0.70;;;;;;;;;;5023546;28;21529;-71
2021/05/17 12:58:52;;;;;;;0.70;0.70;;;;;;;;;;5026600;28;20176;-69
2021/05/17 13:01:22;;;;;;;0.75;0.73;;;;;;;;;;5021908;28;20185;-69
2021/05/17 13:03:50;;;;;;;1.15;1.00;;;;;;;;;;5028146;28;20189;-70
2021/05/17 13:06:21;;;;;;;0.60;0.60;;;;;;;;;;5024335;28;20180;-70
2021/05/17 13:08:50;;;;;;;2.45;0.75;;;;;;;;;;5023667;28;20233;-71
2021/05/17 13:11:36;;;;;;;0.70;0.70;;;;;;;;;;5023040;28;20605;-70
2021/05/17 13:14:17;;;;;;;0.95;0.95;;;;;;;;;;5027236;28;20199;-70
2021/05/17 13:16:58;;;;;;;1.10;1.00;;;;;;;;;;5024449;28;20184;-74
2021/05/17 13:19:46;;;;;;;1.02;0.80;;;;;;;;;;5027513;28;20204;-71
2021/05/17 13:30:32;;;;;;;1.00;0.77;;;;;;;;;;5020747;28;20255;-71
2021/05/17 13:32:59;;;;;;;6.38;4.07;;;;;;;;;;5021286;28;20223;-70
2021/05/17 13:35:25;;;;;;;1.83;1.10;;;;;;;;;;5019288;28;20248;-70
2021/05/17 13:37:51;;;;;;;1.35;1.25;;;;;;;;;;5022415;28;20176;-70
2021/05/17 13:40:17;;;;;;;1.73;0.70;;;;;;;;;;5018184;28;20220;-71
2021/05/17 13:42:44;;;;;;;0.80;0.80;;;;;;;;;;5019465;28;20189;-71
2021/05/17 13:45:11;;;;;;;0.75;0.70;;;;;;;;;;5022326;28;20540;-70
2021/05/17 13:47:37;;;;;;;0.80;0.80;;;;;;;;;;5015283;28;20915;-72
2021/05/17 13:50:09;;;;;;;1.02;0.93;;;;;;;;;;5015199;28;20220;-70
2021/05/17 13:52:35;;;;;;;2.55;0.93;;;;;;;;;;5019421;28;20523;-70
2021/05/17 13:55:02;;;;;;;2.83;0.90;;;;;;;;;;5025654;28;20181;-69
2021/05/17 13:57:28;;;;;;;1.17;0.90;;;;;;;;;;5024362;28;20182;-71
2021/05/17 13:59:54;;;;;;;1.17;0.93;;;;;;;;;;5022576;28;20247;-70
2021/05/17 14:02:20;;;;;;;1.13;0.80;;;;;;;;;;5018875;28;20615;-69
2021/05/17 14:04:46;;;;;;;1.30;0.82;;;;;;;;;;5018244;28;20277;-70
2021/05/17 14:07:12;;;;;;;0.73;0.60;;;;;;;;;;5023084;28;20191;-70
2021/05/17 14:09:38;;;;;;;0.70;0.70;;;;;;;;;;5014861;28;20208;-70
2021/05/17 14:12:04;;;;;;;1.77;0.80;;;;;;;;;;5023232;28;20212;-70
2021/05/17 14:14:31;;;;;;;0.60;0.60;;;;;;;;;;5020819;28;20671;-71
2021/05/17 14:16:57;;;;;;;0.80;0.80;;;;;;;;;;5023889;28;20199;-70
2021/05/17 14:19:24;;;;;;;1.02;0.90;;;;;;;;;;5022552;28;20835;-71
2021/05/17 14:21:50;;;;;;;1.88;1.10;;;;;;;;;;5021625;28;20239;-70
2021/05/17 14:24:16;;;;;;;1.55;0.80;;;;;;;;;;5018916;28;20191;-70
2021/05/17 14:26:42;;;;;;;1.73;0.80;;;;;;;;;;5016192;28;20203;-70
2021/05/17 14:29:08;;;;;;;1.27;1.10;;;;;;;;;;5020219;28;20295;-70
2021/05/17 14:31:35;;;;;;;4.20;1.38;;;;;;;;;;5020084;28;20184;-71
2021/05/17 14:34:01;;;;;;;2.35;1.23;;;;;;;;;;5015422;28;20279;-70
2021/05/17 14:36:31;;;;;;;3.17;1.15;;;;;;;;;;5020824;28;20267;-71
2021/05/17 14:38:58;;;;;;;1.13;1.13;;;;;;;;;;5017285;28;20176;-71
2021/05/17 14:41:24;;;;;;;4.97;1.40;;;;;;;;;;5022284;28;20188;-69
2021/05/17 14:43:50;;;;;;;1.92;1.65;;;;;;;;;;5018131;28;20626;-69
2021/05/17 14:46:17;;;;;;;1.60;1.50;;;;;;;;;;5019371;28;20208;-70
2021/05/17 14:48:43;;;;;;;1.15;0.90;;;;;;;;;;5024315;28;20663;-71
2021/05/17 14:51:09;;;;;;;2.38;1.05;;;;;;;;;;5025521;28;20211;-70
2021/05/17 14:53:35;;;;;;;1.35;1.10;;;;;;;;;;5019057;28;20562;-70
2021/05/17 14:56:01;;;;;;;1.73;1.20;;;;;;;;;;5020251;28;20192;-71
2021/05/17 14:58:27;;;;;;;1.35;1.13;;;;;;;;;;5019115;28;20179;-70
2021/05/17 15:00:53;;;;;;;0.90;0.88;;;;;;;;;;5021892;28;20204;-71
2021/05/17 15:03:19;;;;;;;1.10;1.10;;;;;;;;;;5022970;28;20188;-70
2021/05/17 15:05:45;;;;;;;0.93;0.90;;;;;;;;;;5028024;28;20691;-70
2021/05/17 15:08:12;;;;;;;1.42;1.33;;;;;;;;;;5021358;28;21066;-70
2021/05/17 15:10:39;;;;;;;1.70;1.10;;;;;;;;;;5015979;28;20229;-70
2021/05/17 15:13:05;;;;;;;1.30;1.00;;;;;;;;;;5016303;28;20563;-70
2021/05/17 15:15:32;;;;;;;1.05;0.80;;;;;;;;;;5026685;28;20650;-70
2021/05/17 15:17:58;;;;;;;1.40;1.00;;;;;;;;;;5018498;28;20215;-70
2021/05/17 15:20:25;;;;;;;1.00;1.00;;;;;;;;;;5018881;28;20295;-71